sensor_id;sensor_type;location;lat;lon;timestamp;temperature;humidity
66722;SHT31;53633;49.932;10.884;2023-05-07T00:00:23;13.97;80.22
66722;SHT31;53633;49.932;10.884;2023-05-07T00:02:49;13.98;80.22
66722;SHT31;53633;49.932;10.884;2023-05-07T00:05:16;13.94;80.56
66722;SHT31;53633;49.932;10.884;2023-05-07T00:07:43;13.93;80.67
66722;SHT31;53633;49.932;10.884;2023-05-07T00:10:10;14.00;80.53
66722;SHT31;53633;49.932;10.884;2023-05-07T00:12:39;13.97;80.71
66722;SHT31;53633;49.932;10.884;2023-05-07T00:15:07;13.84;81.12
66722;SHT31;53633;49.932;10.884;2023-05-07T00:17:34;13.73;81.95
66722;SHT31;53633;49.932;10.884;2023-05-07T00:20:02;13.84;81.48
66722;SHT31;53633;49.932;10.884;2023-05-07T00:22:29;13.84;81.29
66722;SHT31;53633;49.932;10.884;2023-05-07T00:24:55;13.95;80.87
66722;SHT31;53633;49.932;10.884;2023-05-07T00:27:22;13.90;81.15
66722;SHT31;53633;49.932;10.884;2023-05-07T00:29:50;13.94;81.29
66722;SHT31;53633;49.932;10.884;2023-05-07T00:32:17;13.88;81.50
66722;SHT31;53633;49.932;10.884;2023-05-07T00:34:44;13.86;81.56
66722;SHT31;53633;49.932;10.884;2023-05-07T00:37:10;13.94;81.32
66722;SHT31;53633;49.932;10.884;2023-05-07T00:39:37;13.91;81.42
66722;SHT31;53633;49.932;10.884;2023-05-07T00:42:04;13.71;82.47
66722;SHT31;53633;49.932;10.884;2023-05-07T00:44:31;13.46;83.55
66722;SHT31;53633;49.932;10.884;2023-05-07T00:47:01;13.40;84.17
66722;SHT31;53633;49.932;10.884;2023-05-07T00:49:36;13.46;83.77
66722;SHT31;53633;49.932;10.884;2023-05-07T00:52:05;13.53;83.74
66722;SHT31;53633;49.932;10.884;2023-05-07T00:54:32;13.70;83.21
66722;SHT31;53633;49.932;10.884;2023-05-07T00:57:00;13.69;83.31
66722;SHT31;53633;49.932;10.884;2023-05-07T00:59:28;13.76;83.14
66722;SHT31;53633;49.932;10.884;2023-05-07T01:01:55;13.80;82.79
66722;SHT31;53633;49.932;10.884;2023-05-07T01:04:23;13.91;82.29
66722;SHT31;53633;49.932;10.884;2023-05-07T01:06:51;13.93;82.10
66722;SHT31;53633;49.932;10.884;2023-05-07T01:09:19;13.95;81.92
66722;SHT31;53633;49.932;10.884;2023-05-07T01:11:47;13.98;81.72
66722;SHT31;53633;49.932;10.884;2023-05-07T01:14:14;13.94;82.05
66722;SHT31;53633;49.932;10.884;2023-05-07T01:16:41;13.63;83.37
66722;SHT31;53633;49.932;10.884;2023-05-07T01:19:08;13.78;83.03
66722;SHT31;53633;49.932;10.884;2023-05-07T01:21:37;13.77;83.15
66722;SHT31;53633;49.932;10.884;2023-05-07T01:24:06;13.88;82.91
66722;SHT31;53633;49.932;10.884;2023-05-07T01:26:33;13.81;82.89
66722;SHT31;53633;49.932;10.884;2023-05-07T01:28:59;13.81;82.83
66722;SHT31;53633;49.932;10.884;2023-05-07T01:31:26;13.87;82.90
66722;SHT31;53633;49.932;10.884;2023-05-07T01:33:53;13.93;82.53
66722;SHT31;53633;49.932;10.884;2023-05-07T01:36:21;14.00;82.30
66722;SHT31;53633;49.932;10.884;2023-05-07T01:38:48;13.93;82.54
66722;SHT31;53633;49.932;10.884;2023-05-07T01:41:17;13.66;83.99
66722;SHT31;53633;49.932;10.884;2023-05-07T01:43:46;13.60;84.25
66722;SHT31;53633;49.932;10.884;2023-05-07T01:46:15;13.69;83.72
66722;SHT31;53633;49.932;10.884;2023-05-07T01:48:42;13.78;83.27
66722;SHT31;53633;49.932;10.884;2023-05-07T01:51:08;13.90;82.88
66722;SHT31;53633;49.932;10.884;2023-05-07T01:53:36;13.81;83.49
66722;SHT31;53633;49.932;10.884;2023-05-07T01:56:03;13.83;83.19
66722;SHT31;53633;49.932;10.884;2023-05-07T01:58:31;13.67;83.94
66722;SHT31;53633;49.932;10.884;2023-05-07T02:00:58;13.62;84.22
66722;SHT31;53633;49.932;10.884;2023-05-07T02:03:24;13.66;83.60
66722;SHT31;53633;49.932;10.884;2023-05-07T02:05:51;13.70;83.56
66722;SHT31;53633;49.932;10.884;2023-05-07T02:08:18;13.59;84.09
66722;SHT31;53633;49.932;10.884;2023-05-07T02:10:45;13.69;83.67
66722;SHT31;53633;49.932;10.884;2023-05-07T02:13:11;13.63;83.76
66722;SHT31;53633;49.932;10.884;2023-05-07T02:15:39;13.56;84.02
66722;SHT31;53633;49.932;10.884;2023-05-07T02:18:08;13.65;83.76
66722;SHT31;53633;49.932;10.884;2023-05-07T02:20:34;13.53;84.21
66722;SHT31;53633;49.932;10.884;2023-05-07T02:23:01;13.59;84.06
66722;SHT31;53633;49.932;10.884;2023-05-07T02:25:28;13.71;83.54
66722;SHT31;53633;49.932;10.884;2023-05-07T02:27:55;13.60;83.70
66722;SHT31;53633;49.932;10.884;2023-05-07T02:30:21;13.60;83.63
66722;SHT31;53633;49.932;10.884;2023-05-07T02:32:49;13.63;83.60
66722;SHT31;53633;49.932;10.884;2023-05-07T02:35:16;13.50;84.15
66722;SHT31;53633;49.932;10.884;2023-05-07T02:37:43;13.46;84.19
66722;SHT31;53633;49.932;10.884;2023-05-07T02:40:11;13.50;84.13
66722;SHT31;53633;49.932;10.884;2023-05-07T02:42:38;13.48;84.11
66722;SHT31;53633;49.932;10.884;2023-05-07T02:45:06;13.28;84.62
66722;SHT31;53633;49.932;10.884;2023-05-07T02:47:32;13.34;84.60
66722;SHT31;53633;49.932;10.884;2023-05-07T02:50:01;12.92;85.93
66722;SHT31;53633;49.932;10.884;2023-05-07T02:52:27;12.92;85.92
66722;SHT31;53633;49.932;10.884;2023-05-07T02:54:54;12.92;86.03
66722;SHT31;53633;49.932;10.884;2023-05-07T02:57:21;12.91;85.74
66722;SHT31;53633;49.932;10.884;2023-05-07T02:59:47;12.87;85.75
66722;SHT31;53633;49.932;10.884;2023-05-07T03:02:14;12.81;85.69
66722;SHT31;53633;49.932;10.884;2023-05-07T03:04:41;12.80;85.74
66722;SHT31;53633;49.932;10.884;2023-05-07T03:07:09;12.83;85.32
66722;SHT31;53633;49.932;10.884;2023-05-07T03:09:35;12.84;85.06
66722;SHT31;53633;49.932;10.884;2023-05-07T03:12:02;12.63;85.67
66722;SHT31;53633;49.932;10.884;2023-05-07T03:14:29;12.42;86.41
66722;SHT31;53633;49.932;10.884;2023-05-07T03:16:55;12.39;86.49
66722;SHT31;53633;49.932;10.884;2023-05-07T03:19:22;12.35;86.76
66722;SHT31;53633;49.932;10.884;2023-05-07T03:21:49;12.35;86.57
66722;SHT31;53633;49.932;10.884;2023-05-07T03:24:17;12.39;86.29
66722;SHT31;53633;49.932;10.884;2023-05-07T03:26:43;12.49;85.89
66722;SHT31;53633;49.932;10.884;2023-05-07T03:29:10;12.28;86.62
66722;SHT31;53633;49.932;10.884;2023-05-07T03:31:37;12.02;87.39
66722;SHT31;53633;49.932;10.884;2023-05-07T03:34:04;12.09;87.44
66722;SHT31;53633;49.932;10.884;2023-05-07T03:36:30;12.02;87.35
66722;SHT31;53633;49.932;10.884;2023-05-07T03:38:57;11.92;87.46
66722;SHT31;53633;49.932;10.884;2023-05-07T03:41:25;11.94;87.72
66722;SHT31;53633;49.932;10.884;2023-05-07T03:43:52;12.04;87.41
66722;SHT31;53633;49.932;10.884;2023-05-07T03:46:18;12.04;87.46
66722;SHT31;53633;49.932;10.884;2023-05-07T03:48:45;12.26;86.89
66722;SHT31;53633;49.932;10.884;2023-05-07T03:51:12;12.11;87.14
66722;SHT31;53633;49.932;10.884;2023-05-07T03:53:38;12.11;87.36
66722;SHT31;53633;49.932;10.884;2023-05-07T03:56:05;12.22;86.81
66722;SHT31;53633;49.932;10.884;2023-05-07T03:58:33;12.28;86.83
66722;SHT31;53633;49.932;10.884;2023-05-07T04:01:00;12.24;86.98
66722;SHT31;53633;49.932;10.884;2023-05-07T04:03:26;12.32;86.58
66722;SHT31;53633;49.932;10.884;2023-05-07T04:05:53;12.19;87.03
66722;SHT31;53633;49.932;10.884;2023-05-07T04:08:20;12.28;86.74
66722;SHT31;53633;49.932;10.884;2023-05-07T04:10:46;12.18;86.90
66722;SHT31;53633;49.932;10.884;2023-05-07T04:13:13;12.24;86.73
66722;SHT31;53633;49.932;10.884;2023-05-07T04:15:41;12.36;86.39
66722;SHT31;53633;49.932;10.884;2023-05-07T04:18:08;12.50;85.70
66722;SHT31;53633;49.932;10.884;2023-05-07T04:20:35;12.59;85.17
66722;SHT31;53633;49.932;10.884;2023-05-07T04:23:01;12.52;85.32
66722;SHT31;53633;49.932;10.884;2023-05-07T04:25:28;12.56;84.91
66722;SHT31;53633;49.932;10.884;2023-05-07T04:27:55;12.73;84.50
66722;SHT31;53633;49.932;10.884;2023-05-07T04:30:23;12.68;84.56
66722;SHT31;53633;49.932;10.884;2023-05-07T04:32:52;12.80;84.37
66722;SHT31;53633;49.932;10.884;2023-05-07T04:35:19;12.88;84.42
66722;SHT31;53633;49.932;10.884;2023-05-07T04:37:45;13.08;83.65
66722;SHT31;53633;49.932;10.884;2023-05-07T04:40:12;13.18;83.63
66722;SHT31;53633;49.932;10.884;2023-05-07T04:42:39;13.32;83.06
66722;SHT31;53633;49.932;10.884;2023-05-07T04:45:06;13.52;82.30
66722;SHT31;53633;49.932;10.884;2023-05-07T04:47:33;13.63;82.08
66722;SHT31;53633;49.932;10.884;2023-05-07T04:50:01;13.78;81.33
66722;SHT31;53633;49.932;10.884;2023-05-07T04:52:28;13.97;81.01
66722;SHT31;53633;49.932;10.884;2023-05-07T04:54:54;14.08;80.45
66722;SHT31;53633;49.932;10.884;2023-05-07T04:57:21;14.28;79.90
66722;SHT31;53633;49.932;10.884;2023-05-07T04:59:47;14.45;79.16
66722;SHT31;53633;49.932;10.884;2023-05-07T05:02:15;14.45;79.22
66722;SHT31;53633;49.932;10.884;2023-05-07T05:04:44;14.56;78.93
66722;SHT31;53633;49.932;10.884;2023-05-07T05:07:13;14.70;78.66
66722;SHT31;53633;49.932;10.884;2023-05-07T05:09:39;15.00;77.96
66722;SHT31;53633;49.932;10.884;2023-05-07T05:12:06;15.76;75.88
66722;SHT31;53633;49.932;10.884;2023-05-07T05:14:32;16.71;73.23
66722;SHT31;53633;49.932;10.884;2023-05-07T05:16:59;17.16;70.94
66722;SHT31;53633;49.932;10.884;2023-05-07T05:19:26;17.86;69.06
66722;SHT31;53633;49.932;10.884;2023-05-07T05:21:52;18.50;67.16
66722;SHT31;53633;49.932;10.884;2023-05-07T05:24:20;18.99;65.21
66722;SHT31;53633;49.932;10.884;2023-05-07T05:26:47;19.20;64.19
66722;SHT31;53633;49.932;10.884;2023-05-07T05:29:14;18.91;64.76
66722;SHT31;53633;49.932;10.884;2023-05-07T05:31:40;18.87;65.29
66722;SHT31;53633;49.932;10.884;2023-05-07T05:34:07;18.94;65.02
66722;SHT31;53633;49.932;10.884;2023-05-07T05:36:34;19.06;64.46
66722;SHT31;53633;49.932;10.884;2023-05-07T05:39:00;18.55;66.01
66722;SHT31;53633;49.932;10.884;2023-05-07T05:41:29;18.23;66.84
66722;SHT31;53633;49.932;10.884;2023-05-07T05:43:55;17.99;67.50
66722;SHT31;53633;49.932;10.884;2023-05-07T05:46:22;17.96;67.72
66722;SHT31;53633;49.932;10.884;2023-05-07T05:48:49;17.75;68.29
66722;SHT31;53633;49.932;10.884;2023-05-07T05:51:15;17.69;68.62
66722;SHT31;53633;49.932;10.884;2023-05-07T05:53:42;17.83;68.49
66722;SHT31;53633;49.932;10.884;2023-05-07T05:56:09;17.93;68.52
66722;SHT31;53633;49.932;10.884;2023-05-07T05:58:37;17.98;68.19
66722;SHT31;53633;49.932;10.884;2023-05-07T06:01:04;18.78;67.29
66722;SHT31;53633;49.932;10.884;2023-05-07T06:03:31;20.28;62.52
66722;SHT31;53633;49.932;10.884;2023-05-07T06:05:58;19.47;62.68
66722;SHT31;53633;49.932;10.884;2023-05-07T06:08:24;19.12;62.13
66722;SHT31;53633;49.932;10.884;2023-05-07T06:10:51;18.14;64.42
66722;SHT31;53633;49.932;10.884;2023-05-07T06:13:18;18.27;64.29
66722;SHT31;53633;49.932;10.884;2023-05-07T06:15:46;17.30;65.65
66722;SHT31;53633;49.932;10.884;2023-05-07T06:18:13;17.50;66.34
66722;SHT31;53633;49.932;10.884;2023-05-07T06:20:40;17.68;67.60
66722;SHT31;53633;49.932;10.884;2023-05-07T06:23:06;17.75;67.97
66722;SHT31;53633;49.932;10.884;2023-05-07T06:25:33;17.88;67.91
66722;SHT31;53633;49.932;10.884;2023-05-07T06:28:00;17.81;68.50
66722;SHT31;53633;49.932;10.884;2023-05-07T06:30:26;17.77;67.94
66722;SHT31;53633;49.932;10.884;2023-05-07T06:32:54;17.72;68.35
66722;SHT31;53633;49.932;10.884;2023-05-07T06:35:21;17.82;68.63
66722;SHT31;53633;49.932;10.884;2023-05-07T06:37:48;17.77;68.34
66722;SHT31;53633;49.932;10.884;2023-05-07T06:40:14;17.78;68.22
66722;SHT31;53633;49.932;10.884;2023-05-07T06:42:41;17.85;68.22
66722;SHT31;53633;49.932;10.884;2023-05-07T06:45:08;17.75;68.20
66722;SHT31;53633;49.932;10.884;2023-05-07T06:47:35;17.60;68.96
66722;SHT31;53633;49.932;10.884;2023-05-07T06:50:04;17.86;67.93
66722;SHT31;53633;49.932;10.884;2023-05-07T06:52:31;17.81;68.01
66722;SHT31;53633;49.932;10.884;2023-05-07T06:54:58;17.99;67.88
66722;SHT31;53633;49.932;10.884;2023-05-07T06:57:24;18.00;67.99
66722;SHT31;53633;49.932;10.884;2023-05-07T06:59:51;18.16;67.96
66722;SHT31;53633;49.932;10.884;2023-05-07T07:02:18;18.29;67.55
66722;SHT31;53633;49.932;10.884;2023-05-07T07:04:44;18.41;67.81
66722;SHT31;53633;49.932;10.884;2023-05-07T07:07:13;18.50;67.15
66722;SHT31;53633;49.932;10.884;2023-05-07T07:09:39;18.58;67.07
66722;SHT31;53633;49.932;10.884;2023-05-07T07:12:06;18.60;67.09
66722;SHT31;53633;49.932;10.884;2023-05-07T07:14:33;18.68;66.58
66722;SHT31;53633;49.932;10.884;2023-05-07T07:17:00;18.78;66.43
66722;SHT31;53633;49.932;10.884;2023-05-07T07:19:26;18.84;66.24
66722;SHT31;53633;49.932;10.884;2023-05-07T07:21:53;19.02;65.66
66722;SHT31;53633;49.932;10.884;2023-05-07T07:24:21;19.33;64.88
66722;SHT31;53633;49.932;10.884;2023-05-07T07:26:48;19.78;64.14
66722;SHT31;53633;49.932;10.884;2023-05-07T07:29:14;20.25;63.26
66722;SHT31;53633;49.932;10.884;2023-05-07T07:31:41;20.52;62.46
66722;SHT31;53633;49.932;10.884;2023-05-07T07:34:08;20.57;62.26
66722;SHT31;53633;49.932;10.884;2023-05-07T07:36:34;20.56;61.40
66722;SHT31;53633;49.932;10.884;2023-05-07T07:39:12;20.60;61.19
66722;SHT31;53633;49.932;10.884;2023-05-07T07:41:40;20.53;62.24
66722;SHT31;53633;49.932;10.884;2023-05-07T07:44:07;20.30;62.69
66722;SHT31;53633;49.932;10.884;2023-05-07T07:46:33;20.42;60.87
66722;SHT31;53633;49.932;10.884;2023-05-07T07:49:00;20.33;59.94
66722;SHT31;53633;49.932;10.884;2023-05-07T07:51:27;20.44;59.47
66722;SHT31;53633;49.932;10.884;2023-05-07T07:53:53;20.83;58.74
66722;SHT31;53633;49.932;10.884;2023-05-07T07:56:20;20.90;60.68
66722;SHT31;53633;49.932;10.884;2023-05-07T07:58:48;20.94;59.34
66722;SHT31;53633;49.932;10.884;2023-05-07T08:01:15;21.05;60.68
66722;SHT31;53633;49.932;10.884;2023-05-07T08:03:41;20.92;60.53
66722;SHT31;53633;49.932;10.884;2023-05-07T08:06:08;20.74;59.49
66722;SHT31;53633;49.932;10.884;2023-05-07T08:08:35;20.18;59.50
66722;SHT31;53633;49.932;10.884;2023-05-07T08:11:02;20.77;58.59
66722;SHT31;53633;49.932;10.884;2023-05-07T08:13:28;20.87;57.89
66722;SHT31;53633;49.932;10.884;2023-05-07T08:15:56;21.24;57.52
66722;SHT31;53633;49.932;10.884;2023-05-07T08:18:23;20.74;58.21
66722;SHT31;53633;49.932;10.884;2023-05-07T08:20:50;21.24;57.89
66722;SHT31;53633;49.932;10.884;2023-05-07T08:23:16;21.62;55.06
66722;SHT31;53633;49.932;10.884;2023-05-07T08:25:43;22.02;54.73
66722;SHT31;53633;49.932;10.884;2023-05-07T08:28:10;22.10;54.62
66722;SHT31;53633;49.932;10.884;2023-05-07T08:30:36;22.49;54.12
66722;SHT31;53633;49.932;10.884;2023-05-07T08:33:04;23.14;52.67
66722;SHT31;53633;49.932;10.884;2023-05-07T08:35:31;22.56;54.09
66722;SHT31;53633;49.932;10.884;2023-05-07T08:37:58;23.15;53.30
66722;SHT31;53633;49.932;10.884;2023-05-07T08:40:25;23.44;51.97
66722;SHT31;53633;49.932;10.884;2023-05-07T08:42:53;23.78;50.30
66722;SHT31;53633;49.932;10.884;2023-05-07T08:45:20;22.80;51.24
66722;SHT31;53633;49.932;10.884;2023-05-07T08:47:50;23.51;50.95
66722;SHT31;53633;49.932;10.884;2023-05-07T08:50:20;23.80;50.78
66722;SHT31;53633;49.932;10.884;2023-05-07T08:52:47;23.59;50.81
66722;SHT31;53633;49.932;10.884;2023-05-07T08:55:14;22.60;52.53
66722;SHT31;53633;49.932;10.884;2023-05-07T08:57:41;23.11;51.50
66722;SHT31;53633;49.932;10.884;2023-05-07T09:00:08;22.99;52.54
66722;SHT31;53633;49.932;10.884;2023-05-07T09:02:35;23.61;50.65
66722;SHT31;53633;49.932;10.884;2023-05-07T09:05:02;23.85;50.52
66722;SHT31;53633;49.932;10.884;2023-05-07T09:07:31;23.51;50.63
66722;SHT31;53633;49.932;10.884;2023-05-07T09:09:57;23.79;51.45
66722;SHT31;53633;49.932;10.884;2023-05-07T09:12:24;24.45;49.73
66722;SHT31;53633;49.932;10.884;2023-05-07T09:14:51;24.30;48.32
66722;SHT31;53633;49.932;10.884;2023-05-07T09:17:18;23.45;49.25
66722;SHT31;53633;49.932;10.884;2023-05-07T09:19:45;23.34;49.92
66722;SHT31;53633;49.932;10.884;2023-05-07T09:22:12;23.66;49.57
66722;SHT31;53633;49.932;10.884;2023-05-07T09:24:40;23.63;49.77
66722;SHT31;53633;49.932;10.884;2023-05-07T09:27:07;24.02;48.20
66722;SHT31;53633;49.932;10.884;2023-05-07T09:29:34;23.95;48.64
66722;SHT31;53633;49.932;10.884;2023-05-07T09:32:01;23.32;50.85
66722;SHT31;53633;49.932;10.884;2023-05-07T09:34:28;23.27;50.09
66722;SHT31;53633;49.932;10.884;2023-05-07T09:36:55;23.63;49.97
66722;SHT31;53633;49.932;10.884;2023-05-07T09:39:22;24.37;51.18
66722;SHT31;53633;49.932;10.884;2023-05-07T09:41:50;23.85;49.32
66722;SHT31;53633;49.932;10.884;2023-05-07T09:44:18;23.76;49.54
66722;SHT31;53633;49.932;10.884;2023-05-07T09:46:47;24.37;50.09
66722;SHT31;53633;49.932;10.884;2023-05-07T09:49:22;24.07;48.06
66722;SHT31;53633;49.932;10.884;2023-05-07T09:51:50;23.68;49.27
66722;SHT31;53633;49.932;10.884;2023-05-07T09:54:17;23.76;49.57
66722;SHT31;53633;49.932;10.884;2023-05-07T09:56:44;23.57;49.01
66722;SHT31;53633;49.932;10.884;2023-05-07T09:59:14;24.05;48.54
66722;SHT31;53633;49.932;10.884;2023-05-07T10:01:42;23.90;48.38
66722;SHT31;53633;49.932;10.884;2023-05-07T10:04:10;23.58;48.37
66722;SHT31;53633;49.932;10.884;2023-05-07T10:06:37;23.59;48.69
66722;SHT31;53633;49.932;10.884;2023-05-07T10:09:05;23.37;49.77
66722;SHT31;53633;49.932;10.884;2023-05-07T10:11:32;23.45;49.56
66722;SHT31;53633;49.932;10.884;2023-05-07T10:13:59;23.70;49.49
66722;SHT31;53633;49.932;10.884;2023-05-07T10:16:33;24.18;48.14
66722;SHT31;53633;49.932;10.884;2023-05-07T10:18:59;24.50;48.02
66722;SHT31;53633;49.932;10.884;2023-05-07T10:21:27;23.79;47.94
66722;SHT31;53633;49.932;10.884;2023-05-07T10:23:58;24.06;47.90
66722;SHT31;53633;49.932;10.884;2023-05-07T10:26:27;24.25;48.45
66722;SHT31;53633;49.932;10.884;2023-05-07T10:28:59;24.76;48.52
66722;SHT31;53633;49.932;10.884;2023-05-07T10:31:50;25.09;46.06
66722;SHT31;53633;49.932;10.884;2023-05-07T10:34:22;24.65;47.82
66722;SHT31;53633;49.932;10.884;2023-05-07T10:36:51;24.40;47.24
66722;SHT31;53633;49.932;10.884;2023-05-07T10:39:19;24.37;48.10
66722;SHT31;53633;49.932;10.884;2023-05-07T10:41:47;24.58;48.00
66722;SHT31;53633;49.932;10.884;2023-05-07T10:44:25;24.40;46.84
66722;SHT31;53633;49.932;10.884;2023-05-07T10:47:05;24.62;47.40
66722;SHT31;53633;49.932;10.884;2023-05-07T10:49:32;24.89;47.69
66722;SHT31;53633;49.932;10.884;2023-05-07T10:52:15;24.16;46.35
66722;SHT31;53633;49.932;10.884;2023-05-07T10:54:42;24.48;46.46
66722;SHT31;53633;49.932;10.884;2023-05-07T10:57:33;25.19;46.31
66722;SHT31;53633;49.932;10.884;2023-05-07T10:59:59;25.08;46.43
66722;SHT31;53633;49.932;10.884;2023-05-07T11:05:29;24.60;47.33
66722;SHT31;53633;49.932;10.884;2023-05-07T11:07:57;24.88;45.89
66722;SHT31;53633;49.932;10.884;2023-05-07T11:10:48;24.61;46.66
66722;SHT31;53633;49.932;10.884;2023-05-07T11:13:15;24.35;46.42
66722;SHT31;53633;49.932;10.884;2023-05-07T11:15:43;24.34;47.65
66722;SHT31;53633;49.932;10.884;2023-05-07T11:18:11;23.95;46.75
66722;SHT31;53633;49.932;10.884;2023-05-07T11:20:55;24.09;47.89
66722;SHT31;53633;49.932;10.884;2023-05-07T11:26:45;23.72;51.78
66722;SHT31;53633;49.932;10.884;2023-05-07T11:29:14;23.54;51.35
66722;SHT31;53633;49.932;10.884;2023-05-07T11:31:41;23.47;51.25
66722;SHT31;53633;49.932;10.884;2023-05-07T11:34:08;22.67;52.52
66722;SHT31;53633;49.932;10.884;2023-05-07T11:36:42;22.93;52.87
66722;SHT31;53633;49.932;10.884;2023-05-07T11:39:23;23.10;52.86
66722;SHT31;53633;49.932;10.884;2023-05-07T11:41:50;23.20;53.20
66722;SHT31;53633;49.932;10.884;2023-05-07T11:44:19;23.06;52.44
66722;SHT31;53633;49.932;10.884;2023-05-07T11:46:46;23.45;52.32
66722;SHT31;53633;49.932;10.884;2023-05-07T11:49:12;24.03;51.42
66722;SHT31;53633;49.932;10.884;2023-05-07T11:51:41;24.51;48.60
66722;SHT31;53633;49.932;10.884;2023-05-07T11:54:08;24.62;49.02
66722;SHT31;53633;49.932;10.884;2023-05-07T11:56:35;24.23;49.76
66722;SHT31;53633;49.932;10.884;2023-05-07T11:59:02;23.92;49.18
66722;SHT31;53633;49.932;10.884;2023-05-07T12:01:28;24.17;49.26
66722;SHT31;53633;49.932;10.884;2023-05-07T12:03:55;24.12;49.45
66722;SHT31;53633;49.932;10.884;2023-05-07T12:06:22;24.23;51.35
66722;SHT31;53633;49.932;10.884;2023-05-07T12:08:50;24.12;48.81
66722;SHT31;53633;49.932;10.884;2023-05-07T12:11:22;24.21;49.98
66722;SHT31;53633;49.932;10.884;2023-05-07T12:13:49;24.06;49.67
66722;SHT31;53633;49.932;10.884;2023-05-07T12:16:16;24.31;50.36
66722;SHT31;53633;49.932;10.884;2023-05-07T12:18:44;24.25;49.15
66722;SHT31;53633;49.932;10.884;2023-05-07T12:21:11;24.17;49.22
66722;SHT31;53633;49.932;10.884;2023-05-07T12:23:38;24.10;49.60
66722;SHT31;53633;49.932;10.884;2023-05-07T12:26:06;24.18;49.30
66722;SHT31;53633;49.932;10.884;2023-05-07T12:28:37;23.89;50.42
66722;SHT31;53633;49.932;10.884;2023-05-07T12:31:04;23.47;50.88
66722;SHT31;53633;49.932;10.884;2023-05-07T12:33:31;23.22;49.71
66722;SHT31;53633;49.932;10.884;2023-05-07T12:35:58;22.96;50.98
66722;SHT31;53633;49.932;10.884;2023-05-07T12:38:24;22.87;51.63
66722;SHT31;53633;49.932;10.884;2023-05-07T12:40:54;22.93;51.16
66722;SHT31;53633;49.932;10.884;2023-05-07T12:43:25;22.93;50.04
66722;SHT31;53633;49.932;10.884;2023-05-07T12:45:53;23.04;50.05
66722;SHT31;53633;49.932;10.884;2023-05-07T12:48:21;23.34;49.63
66722;SHT31;53633;49.932;10.884;2023-05-07T12:50:49;23.10;50.63
66722;SHT31;53633;49.932;10.884;2023-05-07T12:53:16;23.15;49.42
66722;SHT31;53633;49.932;10.884;2023-05-07T12:55:43;23.30;49.79
66722;SHT31;53633;49.932;10.884;2023-05-07T12:58:15;23.62;51.21
66722;SHT31;53633;49.932;10.884;2023-05-07T13:00:44;23.49;49.97
66722;SHT31;53633;49.932;10.884;2023-05-07T13:03:11;23.79;48.84
66722;SHT31;53633;49.932;10.884;2023-05-07T13:05:39;23.92;47.60
66722;SHT31;53633;49.932;10.884;2023-05-07T13:08:05;23.92;48.78
66722;SHT31;53633;49.932;10.884;2023-05-07T13:10:32;24.03;49.50
66722;SHT31;53633;49.932;10.884;2023-05-07T13:12:59;24.03;49.80
66722;SHT31;53633;49.932;10.884;2023-05-07T13:15:25;23.90;47.53
66722;SHT31;53633;49.932;10.884;2023-05-07T13:17:53;23.75;49.00
66722;SHT31;53633;49.932;10.884;2023-05-07T13:20:20;23.75;48.84
66722;SHT31;53633;49.932;10.884;2023-05-07T13:22:47;23.72;49.38
66722;SHT31;53633;49.932;10.884;2023-05-07T13:25:14;23.82;47.70
66722;SHT31;53633;49.932;10.884;2023-05-07T13:27:41;23.99;48.09
66722;SHT31;53633;49.932;10.884;2023-05-07T13:30:07;23.79;47.48
66722;SHT31;53633;49.932;10.884;2023-05-07T13:32:34;23.96;47.90
66722;SHT31;53633;49.932;10.884;2023-05-07T13:35:02;23.83;49.32
66722;SHT31;53633;49.932;10.884;2023-05-07T13:37:29;23.76;48.54
66722;SHT31;53633;49.932;10.884;2023-05-07T13:39:56;23.66;48.30
66722;SHT31;53633;49.932;10.884;2023-05-07T13:42:23;23.57;47.61
66722;SHT31;53633;49.932;10.884;2023-05-07T13:44:49;23.34;48.14
66722;SHT31;53633;49.932;10.884;2023-05-07T13:47:16;23.20;48.51
66722;SHT31;53633;49.932;10.884;2023-05-07T13:49:42;22.75;48.30
66722;SHT31;53633;49.932;10.884;2023-05-07T13:52:11;22.72;49.67
66722;SHT31;53633;49.932;10.884;2023-05-07T13:54:38;22.87;50.10
66722;SHT31;53633;49.932;10.884;2023-05-07T13:57:04;23.15;49.53
66722;SHT31;53633;49.932;10.884;2023-05-07T13:59:31;23.20;48.83
66722;SHT31;53633;49.932;10.884;2023-05-07T14:01:58;23.22;47.80
66722;SHT31;53633;49.932;10.884;2023-05-07T14:04:25;23.22;48.51
66722;SHT31;53633;49.932;10.884;2023-05-07T14:06:51;23.28;47.02
66722;SHT31;53633;49.932;10.884;2023-05-07T14:09:19;23.15;46.79
66722;SHT31;53633;49.932;10.884;2023-05-07T14:11:46;23.41;47.73
66722;SHT31;53633;49.932;10.884;2023-05-07T14:14:13;23.22;46.82
66722;SHT31;53633;49.932;10.884;2023-05-07T14:16:39;23.30;47.23
66722;SHT31;53633;49.932;10.884;2023-05-07T14:19:06;23.17;48.08
66722;SHT31;53633;49.932;10.884;2023-05-07T14:21:33;22.96;48.37
66722;SHT31;53633;49.932;10.884;2023-05-07T14:23:59;22.90;49.55
66722;SHT31;53633;49.932;10.884;2023-05-07T14:26:28;22.92;50.41
66722;SHT31;53633;49.932;10.884;2023-05-07T14:28:55;22.84;49.67
66722;SHT31;53633;49.932;10.884;2023-05-07T14:31:21;22.67;49.28
66722;SHT31;53633;49.932;10.884;2023-05-07T14:33:48;22.56;49.91
66722;SHT31;53633;49.932;10.884;2023-05-07T14:36:15;22.63;49.30
66722;SHT31;53633;49.932;10.884;2023-05-07T14:38:41;22.73;50.24
66722;SHT31;53633;49.932;10.884;2023-05-07T14:41:08;22.94;50.00
66722;SHT31;53633;49.932;10.884;2023-05-07T14:43:36;23.13;49.65
66722;SHT31;53633;49.932;10.884;2023-05-07T14:46:03;23.04;48.66
66722;SHT31;53633;49.932;10.884;2023-05-07T14:48:30;22.99;48.02
66722;SHT31;53633;49.932;10.884;2023-05-07T14:50:56;22.89;48.75
66722;SHT31;53633;49.932;10.884;2023-05-07T14:53:23;23.07;49.90
66722;SHT31;53633;49.932;10.884;2023-05-07T14:55:50;23.08;49.73
66722;SHT31;53633;49.932;10.884;2023-05-07T14:58:16;22.87;49.51
66722;SHT31;53633;49.932;10.884;2023-05-07T15:00:44;22.86;49.48
66722;SHT31;53633;49.932;10.884;2023-05-07T15:03:11;22.83;48.53
66722;SHT31;53633;49.932;10.884;2023-05-07T15:05:38;22.69;48.63
66722;SHT31;53633;49.932;10.884;2023-05-07T15:08:05;22.63;49.54
66722;SHT31;53633;49.932;10.884;2023-05-07T15:10:35;22.66;50.12
66722;SHT31;53633;49.932;10.884;2023-05-07T15:13:01;22.55;46.98
66722;SHT31;53633;49.932;10.884;2023-05-07T15:15:28;22.44;47.07
66722;SHT31;53633;49.932;10.884;2023-05-07T15:17:56;22.44;45.20
66722;SHT31;53633;49.932;10.884;2023-05-07T15:20:23;22.37;46.52
66722;SHT31;53633;49.932;10.884;2023-05-07T15:22:49;22.44;46.81